createdAt,value
2023-05-12T00:02:26.370Z,0.00
2023-05-12T00:04:59.788Z,0.00
2023-05-12T00:07:33.028Z,2.10
2023-05-12T00:10:07.192Z,0.00
2023-05-12T00:12:40.167Z,0.00
2023-05-12T00:15:13.083Z,0.20
2023-05-12T00:17:47.589Z,0.00
2023-05-12T00:20:20.909Z,0.00
2023-05-12T00:22:53.983Z,1.20
2023-05-12T00:25:27.154Z,0.00
2023-05-12T00:28:00.220Z,1.23
2023-05-12T00:30:33.335Z,0.13
2023-05-12T00:33:07.855Z,0.75
2023-05-12T00:35:40.863Z,0.00
2023-05-12T00:38:14.240Z,0.00
2023-05-12T00:40:47.227Z,0.47
2023-05-12T00:43:20.538Z,0.00
2023-05-12T00:45:53.952Z,0.00
2023-05-12T00:48:28.493Z,0.00
2023-05-12T00:51:02.056Z,0.00
2023-05-12T00:53:47.598Z,0.08
2023-05-12T00:56:21.989Z,0.00
2023-05-12T00:58:55.141Z,0.00
2023-05-12T01:01:28.484Z,0.10
2023-05-12T01:04:03.647Z,0.00
2023-05-12T01:06:49.414Z,0.00
2023-05-12T01:09:22.963Z,0.00
2023-05-12T01:11:56.266Z,0.05
2023-05-12T01:14:29.354Z,0.00
2023-05-12T01:17:08.923Z,0.00
2023-05-12T01:19:49.199Z,0.10
2023-05-12T01:22:22.458Z,0.10
2023-05-12T01:24:58.688Z,0.00
2023-05-12T01:27:35.200Z,0.17
2023-05-12T01:30:11.119Z,0.43
2023-05-12T01:32:44.879Z,0.00
2023-05-12T01:35:18.116Z,0.00
2023-05-12T01:37:57.532Z,0.00
2023-05-12T01:40:30.818Z,0.00
2023-05-12T01:43:05.654Z,0.00
2023-05-12T01:45:39.275Z,0.00
2023-05-12T01:48:12.301Z,0.00
2023-05-12T01:50:45.367Z,0.00
2023-05-12T01:53:22.918Z,0.00
2023-05-12T01:55:55.821Z,0.20
2023-05-12T01:58:32.742Z,0.00
2023-05-12T02:01:06.290Z,0.00
2023-05-12T02:03:39.735Z,0.00
2023-05-12T02:06:17.986Z,0.00
2023-05-12T02:08:51.028Z,0.10
2023-05-12T02:11:24.009Z,0.00
2023-05-12T02:13:58.951Z,0.00
2023-05-12T02:16:32.336Z,0.00
2023-05-12T02:19:05.479Z,0.08
2023-05-12T02:21:38.953Z,0.00
2023-05-12T02:24:13.622Z,0.22
2023-05-12T02:26:48.019Z,0.00
2023-05-12T02:29:23.130Z,0.55
2023-05-12T02:31:56.158Z,0.00
2023-05-12T02:34:29.335Z,0.00
2023-05-12T02:37:03.011Z,0.52
2023-05-12T02:39:36.412Z,0.47
2023-05-12T02:42:09.400Z,0.00
2023-05-12T02:44:43.756Z,0.00
2023-05-12T02:47:16.799Z,0.00
2023-05-12T02:49:50.364Z,0.10
2023-05-12T02:52:23.399Z,0.38
2023-05-12T02:54:57.507Z,0.13
2023-05-12T02:57:34.062Z,0.20
2023-05-12T03:00:09.935Z,0.00
2023-05-12T03:02:45.320Z,0.00
2023-05-12T03:05:18.695Z,0.00
2023-05-12T03:07:51.735Z,0.20
2023-05-12T03:10:24.668Z,0.00
2023-05-12T03:12:59.891Z,0.00
2023-05-12T03:15:34.719Z,0.00
2023-05-12T03:18:07.786Z,0.10
2023-05-12T03:20:40.927Z,0.00
2023-05-12T03:23:13.913Z,0.40
2023-05-12T03:25:49.251Z,0.00
2023-05-12T03:28:23.330Z,0.00
2023-05-12T03:30:58.045Z,0.00
2023-05-12T03:33:31.562Z,0.00
2023-05-12T03:36:04.860Z,0.00
2023-05-12T03:38:38.124Z,0.00
2023-05-12T03:41:11.670Z,0.00
2023-05-12T03:43:45.256Z,0.00
2023-05-12T03:46:19.860Z,0.00
2023-05-12T03:48:52.889Z,0.00
2023-05-12T03:51:25.685Z,0.00
2023-05-12T03:53:58.563Z,0.00
2023-05-12T03:56:31.580Z,0.00
2023-05-12T03:59:04.459Z,0.00
2023-05-12T04:01:38.818Z,0.32
2023-05-12T04:04:11.743Z,0.00
2023-05-12T04:06:44.537Z,0.00
2023-05-12T04:09:17.714Z,0.00
2023-05-12T04:11:51.415Z,0.00
2023-05-12T04:14:35.184Z,0.00
2023-05-12T04:19:52.764Z,0.00
2023-05-12T04:22:25.941Z,1.55
2023-05-12T04:24:59.463Z,0.00
2023-05-12T04:27:32.657Z,0.10
2023-05-12T04:30:07.587Z,0.00
2023-05-12T04:32:44.040Z,0.68
2023-05-12T04:35:17.771Z,0.00
2023-05-12T04:37:50.994Z,0.00
2023-05-12T04:40:24.203Z,0.00
2023-05-12T04:42:57.888Z,0.00
2023-05-12T04:45:31.661Z,0.10
2023-05-12T04:48:06.520Z,0.10
2023-05-12T04:50:39.412Z,0.00
2023-05-12T04:53:13.339Z,0.00
2023-05-12T04:55:47.238Z,0.00
2023-05-12T04:58:21.149Z,0.00
2023-05-12T05:00:54.463Z,0.00
2023-05-12T05:03:29.325Z,0.00
2023-05-12T05:06:02.139Z,0.10
2023-05-12T05:08:34.929Z,0.15
2023-05-12T05:11:09.187Z,0.10
2023-05-12T05:13:41.995Z,0.00
2023-05-12T05:16:14.900Z,0.00
2023-05-12T05:18:49.572Z,0.00
2023-05-12T05:21:22.545Z,0.00
2023-05-12T05:23:55.415Z,0.00
2023-05-12T05:26:29.016Z,0.00
2023-05-12T05:29:02.250Z,0.00
2023-05-12T05:31:35.048Z,0.00
2023-05-12T05:34:09.937Z,0.00
2023-05-12T05:36:43.248Z,0.00
2023-05-12T05:39:16.123Z,0.00
2023-05-12T05:41:49.177Z,0.52
2023-05-12T05:44:22.755Z,0.00
2023-05-12T05:46:55.669Z,0.10
2023-05-12T05:49:32.308Z,0.00
2023-05-12T05:52:07.624Z,0.98
2023-05-12T05:54:41.050Z,0.45
2023-05-12T05:57:14.306Z,0.55
2023-05-12T05:59:47.770Z,0.00
2023-05-12T06:02:23.377Z,0.00
2023-05-12T06:04:58.048Z,0.00
2023-05-12T06:07:32.082Z,0.00
2023-05-12T06:10:06.250Z,0.00
2023-05-12T06:12:40.954Z,0.00
2023-05-12T06:15:14.396Z,0.00
2023-05-12T06:17:48.197Z,0.00
2023-05-12T06:20:23.459Z,0.20
2023-05-12T06:22:57.031Z,0.17
2023-05-12T06:25:30.277Z,0.00
2023-05-12T06:28:08.784Z,2.53
2023-05-12T06:30:41.864Z,0.10
2023-05-12T06:33:14.815Z,2.45
2023-05-12T06:35:49.150Z,0.03
2023-05-12T06:38:22.114Z,0.43
2023-05-12T06:40:55.001Z,0.00
2023-05-12T06:43:27.896Z,1.75
2023-05-12T06:46:02.052Z,3.70
2023-05-12T06:48:34.872Z,0.30
2023-05-12T06:51:09.429Z,0.20
2023-05-12T06:53:42.384Z,0.00
2023-05-12T06:56:17.052Z,0.13
2023-05-12T06:58:49.970Z,0.00
2023-05-12T07:01:23.007Z,0.00
2023-05-12T07:03:56.224Z,0.08
2023-05-12T07:06:31.604Z,0.00
2023-05-12T07:09:04.675Z,0.13
2023-05-12T07:11:37.571Z,0.00
2023-05-12T07:14:10.447Z,0.00
2023-05-12T07:16:43.310Z,0.00
2023-05-12T07:19:16.138Z,0.00
2023-05-12T07:21:50.363Z,0.00
2023-05-12T07:24:23.317Z,0.82
2023-05-12T07:26:56.718Z,0.00
2023-05-12T07:29:29.576Z,0.00
2023-05-12T07:32:02.422Z,0.00
2023-05-12T07:34:35.287Z,2.40
2023-05-12T07:37:09.456Z,0.10
2023-05-12T07:39:42.229Z,0.32
2023-05-12T07:42:15.067Z,0.00
2023-05-12T07:44:47.847Z,0.00
2023-05-12T07:47:20.816Z,0.00
2023-05-12T07:49:53.575Z,0.00
2023-05-12T07:52:27.660Z,0.00
2023-05-12T07:55:00.602Z,0.00
2023-05-12T07:57:33.390Z,0.00
2023-05-12T08:00:08.449Z,0.00
2023-05-12T08:02:45.897Z,0.05
2023-05-12T08:05:19.081Z,0.00
2023-05-12T08:07:53.413Z,0.00
2023-05-12T08:10:29.618Z,0.00
2023-05-12T08:13:02.365Z,0.00
2023-05-12T08:15:35.226Z,0.00
2023-05-12T08:18:08.110Z,0.00
2023-05-12T08:20:41.116Z,0.00
2023-05-12T08:23:17.025Z,0.00
2023-05-12T08:25:52.550Z,0.00
2023-05-12T08:28:25.332Z,0.10
2023-05-12T08:30:58.276Z,0.05
2023-05-12T08:33:31.089Z,0.10
2023-05-12T08:36:04.311Z,0.00
2023-05-12T08:38:38.500Z,1.73
2023-05-12T08:41:20.010Z,0.00
2023-05-12T08:43:53.826Z,0.00
2023-05-12T08:46:26.980Z,0.00
2023-05-12T08:49:01.904Z,0.00
2023-05-12T08:51:39.304Z,0.00
2023-05-12T08:54:14.699Z,0.00
2023-05-12T08:59:24.905Z,0.00
2023-05-12T09:02:00.077Z,0.00
2023-05-12T09:04:33.508Z,0.00
2023-05-12T09:07:07.426Z,0.80
2023-05-12T09:09:45.133Z,0.00
2023-05-12T09:12:21.399Z,0.75
2023-05-12T09:15:04.705Z,0.00
2023-05-12T09:17:37.715Z,0.00
2023-05-12T09:20:23.804Z,0.00
2023-05-12T09:23:16.266Z,0.00
2023-05-12T09:26:01.176Z,0.52
2023-05-12T09:28:38.576Z,0.00
2023-05-12T09:31:19.023Z,0.00
2023-05-12T09:36:26.655Z,0.00
2023-05-12T09:39:00.553Z,0.00
2023-05-12T09:41:36.337Z,0.00
2023-05-12T09:44:10.592Z,0.00
2023-05-12T09:46:43.437Z,0.00
2023-05-12T09:49:19.958Z,0.00
2023-05-12T09:51:53.374Z,0.00
2023-05-12T09:54:28.364Z,0.00
2023-05-12T09:57:05.279Z,0.00
2023-05-12T09:59:39.082Z,1.08
2023-05-12T10:02:16.470Z,0.00
2023-05-12T10:04:53.964Z,0.00
2023-05-12T10:07:29.185Z,0.00
2023-05-12T10:10:05.723Z,0.00
2023-05-12T10:12:40.845Z,0.00
2023-05-12T10:15:14.838Z,0.10
2023-05-12T10:17:49.899Z,0.00
2023-05-12T10:20:25.550Z,0.00
2023-05-12T10:23:00.337Z,0.00
2023-05-12T10:25:34.086Z,0.00
2023-05-12T10:28:09.566Z,0.00
2023-05-12T10:30:43.661Z,0.20
2023-05-12T10:33:16.524Z,0.00
2023-05-12T10:35:50.302Z,0.00
2023-05-12T10:38:23.546Z,2.42
2023-05-12T10:41:01.316Z,2.40
2023-05-12T10:43:41.997Z,2.35
2023-05-12T10:46:21.009Z,3.08
2023-05-12T10:48:56.642Z,3.55
2023-05-12T10:51:31.196Z,3.03
2023-05-12T10:54:05.938Z,3.25
2023-05-12T10:56:44.908Z,3.05
2023-05-12T11:00:29.267Z,3.05
2023-05-12T11:03:17.395Z,3.13
2023-05-12T11:06:01.142Z,2.97
2023-05-12T11:08:35.800Z,3.28
2023-05-12T11:12:12.474Z,3.72
2023-05-12T11:14:47.138Z,3.10
2023-05-12T11:17:20.249Z,3.53
2023-05-12T11:19:55.090Z,3.25
2023-05-12T11:22:28.232Z,3.60
2023-05-12T11:25:10.705Z,3.80
2023-05-12T11:27:49.770Z,3.88
2023-05-12T11:30:23.130Z,4.20
2023-05-12T11:33:03.155Z,3.22
2023-05-12T11:35:37.688Z,3.45
2023-05-12T11:38:16.631Z,3.53
2023-05-12T11:40:49.619Z,3.45
2023-05-12T11:43:23.096Z,3.70
2023-05-12T11:45:56.469Z,3.85
2023-05-12T11:48:35.010Z,3.50
2023-05-12T11:51:09.241Z,2.90
2023-05-12T11:53:42.488Z,3.47
2023-05-12T11:56:20.071Z,2.85
2023-05-12T11:58:54.062Z,3.40
2023-05-12T12:01:27.031Z,2.22
2023-05-12T12:04:00.167Z,2.30
2023-05-12T12:06:44.777Z,2.47
2023-05-12T12:09:17.607Z,2.33
2023-05-12T12:11:50.701Z,2.55
2023-05-12T12:14:23.587Z,2.47
2023-05-12T12:16:56.431Z,3.13
2023-05-12T12:19:29.768Z,3.25
2023-05-12T12:22:04.100Z,2.80
2023-05-12T12:24:37.015Z,2.40
2023-05-12T12:27:11.504Z,3.00
2023-05-12T12:29:44.428Z,2.10
2023-05-12T12:32:17.684Z,2.13
2023-05-12T12:34:50.557Z,1.88
2023-05-12T12:37:24.725Z,1.90
2023-05-12T12:39:57.511Z,1.63
2023-05-12T12:42:30.259Z,1.52
2023-05-12T12:45:04.145Z,1.27
2023-05-12T12:47:38.846Z,1.40
2023-05-12T12:50:12.343Z,1.45
2023-05-12T12:52:46.578Z,2.00
2023-05-12T12:55:19.898Z,1.80
2023-05-12T12:57:53.103Z,1.38
2023-05-12T13:00:27.004Z,1.65
2023-05-12T13:03:00.557Z,1.42
2023-05-12T13:05:34.047Z,1.70
2023-05-12T13:08:08.488Z,1.80
2023-05-12T13:10:42.011Z,2.00
2023-05-12T13:13:14.998Z,1.70
2023-05-12T13:15:47.793Z,1.70
2023-05-12T13:18:20.984Z,2.03
2023-05-12T13:20:54.392Z,2.30
2023-05-12T13:23:28.552Z,2.33
2023-05-12T13:26:01.501Z,3.17
2023-05-12T13:28:34.301Z,2.17
2023-05-12T13:31:07.378Z,2.17
2023-05-12T13:33:40.526Z,2.03
2023-05-12T13:36:13.586Z,2.08
2023-05-12T13:38:48.109Z,2.10
2023-05-12T13:41:20.954Z,2.15
2023-05-12T13:43:53.816Z,2.50
2023-05-12T13:46:26.854Z,2.30
2023-05-12T13:48:59.814Z,2.13
2023-05-12T13:51:33.049Z,1.88
2023-05-12T13:54:07.179Z,2.10
2023-05-12T13:56:39.888Z,1.90
2023-05-12T13:59:13.884Z,2.10
2023-05-12T14:01:46.941Z,2.33
2023-05-12T14:04:19.693Z,2.08
2023-05-12T14:06:52.890Z,2.20
2023-05-12T14:09:28.386Z,2.08
2023-05-12T14:12:02.830Z,1.98
2023-05-12T14:14:35.662Z,1.92
2023-05-12T14:17:08.480Z,2.08
2023-05-12T14:19:41.513Z,2.05
2023-05-12T14:22:25.419Z,2.00
2023-05-12T14:25:01.712Z,1.45
2023-05-12T14:27:34.626Z,1.40
2023-05-12T14:30:10.766Z,1.67
2023-05-12T14:32:43.798Z,1.90
2023-05-12T14:35:16.826Z,1.40
2023-05-12T14:37:49.708Z,1.67
2023-05-12T14:40:24.902Z,1.98
2023-05-12T14:42:57.718Z,1.50
2023-05-12T14:45:31.839Z,1.75
2023-05-12T14:48:05.313Z,1.75
2023-05-12T14:50:39.287Z,1.80
2023-05-12T14:53:12.369Z,1.80
2023-05-12T14:55:46.831Z,2.00
2023-05-12T14:58:21.662Z,2.10
2023-05-12T15:00:55.366Z,1.80
2023-05-12T15:03:28.479Z,1.80
2023-05-12T15:08:37.205Z,2.03
2023-05-12T15:11:11.495Z,1.77
2023-05-12T15:13:44.327Z,2.13
2023-05-12T15:16:17.194Z,2.40
2023-05-12T15:18:50.352Z,2.35
2023-05-12T15:21:23.512Z,2.50
2023-05-12T15:23:56.638Z,2.15
2023-05-12T15:26:33.988Z,1.98
2023-05-12T15:29:08.006Z,2.00
2023-05-12T15:31:41.236Z,2.10
2023-05-12T15:34:14.189Z,2.17
2023-05-12T15:36:48.988Z,2.00
2023-05-12T15:39:23.414Z,2.17
2023-05-12T15:41:58.955Z,2.13
2023-05-12T15:44:31.894Z,2.00
2023-05-12T15:47:05.372Z,2.30
2023-05-12T15:49:38.217Z,2.10
2023-05-12T15:52:11.477Z,2.20
2023-05-12T15:54:45.022Z,2.03
2023-05-12T15:57:19.165Z,1.85
2023-05-12T15:59:57.114Z,2.17
2023-05-12T16:02:30.011Z,2.22
2023-05-12T16:05:03.490Z,2.58
2023-05-12T16:07:36.599Z,2.10
2023-05-12T16:10:10.417Z,2.00
2023-05-12T16:12:46.537Z,1.90
2023-05-12T16:15:19.894Z,2.85
2023-05-12T16:17:53.454Z,2.13
2023-05-12T16:20:26.350Z,2.65
2023-05-12T16:22:59.481Z,2.20
2023-05-12T16:25:32.505Z,2.20
2023-05-12T16:28:06.785Z,2.25
2023-05-12T16:30:39.531Z,2.22
2023-05-12T16:33:12.831Z,2.08
2023-05-12T16:35:45.681Z,2.10
2023-05-12T16:38:18.597Z,2.08
2023-05-12T16:40:51.398Z,2.00
2023-05-12T16:43:25.808Z,1.95
2023-05-12T16:46:02.047Z,2.03
2023-05-12T16:48:35.277Z,2.28
2023-05-12T16:51:10.209Z,2.10
2023-05-12T16:53:43.040Z,2.17
2023-05-12T16:56:15.805Z,2.35
2023-05-12T16:58:50.055Z,2.20
2023-05-12T17:01:23.520Z,2.40
2023-05-12T17:03:56.508Z,2.65
2023-05-12T17:06:29.585Z,2.40
2023-05-12T17:09:02.763Z,1.75
2023-05-12T17:11:35.580Z,2.50
2023-05-12T17:14:09.846Z,2.42
2023-05-12T17:16:44.605Z,1.80
2023-05-12T17:19:17.428Z,2.50
2023-05-12T17:21:50.337Z,2.15
2023-05-12T17:24:23.235Z,2.50
2023-05-12T17:26:56.014Z,2.30
2023-05-12T17:29:30.465Z,2.30
2023-05-12T17:32:03.519Z,2.28
2023-05-12T17:34:36.972Z,2.05
2023-05-12T17:37:09.920Z,2.45
2023-05-12T17:39:44.343Z,2.63
2023-05-12T17:42:17.399Z,2.75
2023-05-12T17:44:51.861Z,2.90
2023-05-12T17:47:24.857Z,2.63
2023-05-12T17:49:57.914Z,2.60
2023-05-12T17:52:30.842Z,2.75
2023-05-12T17:55:03.697Z,2.60
2023-05-12T17:57:36.547Z,2.72
2023-05-12T18:00:12.188Z,4.18
2023-05-12T18:03:27.444Z,4.10
2023-05-12T18:06:05.956Z,3.70
2023-05-12T18:08:38.876Z,3.95
2023-05-12T18:11:11.689Z,3.35
2023-05-12T18:14:37.925Z,3.42
2023-05-12T18:21:06.597Z,3.10
2023-05-12T18:23:39.680Z,3.50
2023-05-12T18:26:12.482Z,2.83
2023-05-12T18:28:45.294Z,3.33
2023-05-12T18:31:19.531Z,3.33
2023-05-12T18:33:54.178Z,3.53
2023-05-12T18:36:28.207Z,3.25
2023-05-12T18:39:01.045Z,3.83
2023-05-12T18:41:33.858Z,3.45
2023-05-12T18:44:09.133Z,3.60
2023-05-12T18:46:42.128Z,3.60
2023-05-12T18:49:16.590Z,3.78
2023-05-12T18:51:49.511Z,3.22
2023-05-12T18:54:22.276Z,3.50
2023-05-12T18:56:55.304Z,4.78
2023-05-12T18:59:29.023Z,4.40
2023-05-12T19:02:01.913Z,4.80
2023-05-12T19:04:36.108Z,4.63
2023-05-12T19:07:10.270Z,4.72
2023-05-12T19:09:43.246Z,4.97
2023-05-12T19:12:16.105Z,4.50
2023-05-12T19:14:48.958Z,4.55
2023-05-12T19:17:22.212Z,4.85
2023-05-12T19:19:57.840Z,4.50
2023-05-12T19:22:30.635Z,4.47
2023-05-12T19:25:04.243Z,4.97
2023-05-12T19:27:37.187Z,4.93
2023-05-12T19:30:11.625Z,5.93
2023-05-12T19:32:46.067Z,5.38
2023-05-12T19:35:22.595Z,5.90
2023-05-12T19:37:55.770Z,5.57
2023-05-12T19:40:29.046Z,5.68
2023-05-12T19:43:02.182Z,5.03
2023-05-12T19:45:34.988Z,5.65
2023-05-12T19:48:08.632Z,4.97
2023-05-12T19:50:42.826Z,5.20
2023-05-12T19:53:15.617Z,5.47
2023-05-12T19:55:48.485Z,5.32
2023-05-12T19:58:21.561Z,5.30
2023-05-12T20:00:55.511Z,5.82
2023-05-12T20:03:28.463Z,6.35
2023-05-12T20:06:02.862Z,6.32
2023-05-12T20:08:35.919Z,5.95
2023-05-12T20:11:08.949Z,6.63
2023-05-12T20:13:42.039Z,6.22
2023-05-12T20:16:14.920Z,5.80
2023-05-12T20:18:47.810Z,6.43
2023-05-12T20:21:22.596Z,6.68
2023-05-12T20:23:55.392Z,5.63
2023-05-12T20:26:28.385Z,6.63
2023-05-12T20:29:01.316Z,6.05
2023-05-12T20:31:34.582Z,6.00
2023-05-12T20:34:07.377Z,6.00
2023-05-12T20:36:41.690Z,6.53
2023-05-12T20:39:15.234Z,5.25
2023-05-12T20:41:48.178Z,5.70
2023-05-12T20:44:22.490Z,6.35
2023-05-12T20:46:56.008Z,5.93
2023-05-12T20:49:28.810Z,5.38
2023-05-12T20:52:03.269Z,5.30
2023-05-12T20:54:36.114Z,4.97
2023-05-12T20:57:10.268Z,5.78
2023-05-12T20:59:43.212Z,5.88
2023-05-12T21:02:18.390Z,5.95
2023-05-12T21:04:52.021Z,5.88
2023-05-12T21:07:26.342Z,5.55
2023-05-12T21:10:00.203Z,5.47
2023-05-12T21:12:33.389Z,5.93
2023-05-12T21:15:10.426Z,5.72
2023-05-12T21:17:43.336Z,5.78
2023-05-12T21:20:16.282Z,6.93
2023-05-12T21:22:50.485Z,7.45
2023-05-12T21:25:23.317Z,6.18
2023-05-12T21:27:56.182Z,6.18
2023-05-12T21:30:29.002Z,7.28
2023-05-12T21:33:01.870Z,7.65
2023-05-12T21:35:34.786Z,6.88
2023-05-12T21:38:10.118Z,6.78
2023-05-12T21:40:43.226Z,5.60
2023-05-12T21:43:16.098Z,6.50
2023-05-12T21:45:49.437Z,6.32
2023-05-12T21:48:22.702Z,6.22
2023-05-12T21:50:59.627Z,5.68
2023-05-12T21:53:33.860Z,5.70
2023-05-12T21:56:07.719Z,5.00
2023-05-12T21:58:43.977Z,4.97
2023-05-12T22:01:22.430Z,5.65
2023-05-12T22:03:58.777Z,5.47
2023-05-12T22:06:35.613Z,5.10
2023-05-12T22:09:12.383Z,5.30
2023-05-12T22:11:46.082Z,5.90
2023-05-12T22:14:19.173Z,6.53
2023-05-12T22:16:52.434Z,5.72
2023-05-12T22:19:25.517Z,6.07
2023-05-12T22:21:58.849Z,6.13
2023-05-12T22:24:35.654Z,6.32
2023-05-12T22:27:09.106Z,6.20
2023-05-12T22:29:42.327Z,6.20
2023-05-12T22:32:15.638Z,4.80
2023-05-12T22:34:48.937Z,4.18
2023-05-12T22:37:22.473Z,4.25
2023-05-12T22:39:56.997Z,4.07
2023-05-12T22:42:30.158Z,4.38
2023-05-12T22:45:04.885Z,4.65
2023-05-12T22:47:38.122Z,4.55
2023-05-12T22:50:12.068Z,4.82
2023-05-12T22:52:45.254Z,5.18
2023-05-12T22:55:19.578Z,3.58
2023-05-12T22:57:52.647Z,3.83
2023-05-12T23:00:25.740Z,4.00
2023-05-12T23:03:00.137Z,4.57
2023-05-12T23:05:33.354Z,4.18
2023-05-12T23:08:06.472Z,4.63
2023-05-12T23:10:40.910Z,4.95
2023-05-12T23:13:14.033Z,5.15
2023-05-12T23:15:47.400Z,4.90
2023-05-12T23:18:21.152Z,5.57
2023-05-12T23:20:54.177Z,5.20
2023-05-12T23:23:27.199Z,4.82
2023-05-12T23:26:01.846Z,5.75
2023-05-12T23:28:34.968Z,5.13
2023-05-12T23:31:08.231Z,5.22
2023-05-12T23:33:41.571Z,4.22
2023-05-12T23:36:14.950Z,4.15
2023-05-12T23:38:50.906Z,4.47
2023-05-12T23:41:26.074Z,5.65
2023-05-12T23:43:59.252Z,4.70
2023-05-12T23:46:32.668Z,5.43
2023-05-12T23:49:06.413Z,5.90
2023-05-12T23:51:39.747Z,5.40
2023-05-12T23:54:12.885Z,5.10
2023-05-12T23:56:47.566Z,4.93
2023-05-12T23:59:20.773Z,4.55
